sensor_id;sensor_type;location;lat;lon;timestamp;temperature;humidity
41481;DHT22;27217;51.220;5.308;2022-12-05T00:02:12;3.60;99.90
41481;DHT22;27217;51.220;5.308;2022-12-05T00:04:38;3.80;99.90
41481;DHT22;27217;51.220;5.308;2022-12-05T00:07:03;3.70;99.90
41481;DHT22;27217;51.220;5.308;2022-12-05T00:09:29;3.60;99.90
41481;DHT22;27217;51.220;5.308;2022-12-05T00:11:55;3.60;99.90
41481;DHT22;27217;51.220;5.308;2022-12-05T00:14:20;3.60;99.90
41481;DHT22;27217;51.220;5.308;2022-12-05T00:16:46;3.60;99.90
41481;DHT22;27217;51.220;5.308;2022-12-05T00:19:14;3.60;99.90
41481;DHT22;27217;51.220;5.308;2022-12-05T00:21:40;3.70;99.90
41481;DHT22;27217;51.220;5.308;2022-12-05T00:24:08;3.80;99.90
41481;DHT22;27217;51.220;5.308;2022-12-05T00:26:35;3.60;99.90
41481;DHT22;27217;51.220;5.308;2022-12-05T00:29:02;3.60;99.90
41481;DHT22;27217;51.220;5.308;2022-12-05T00:31:28;3.70;99.90
41481;DHT22;27217;51.220;5.308;2022-12-05T00:33:54;3.70;99.90
41481;DHT22;27217;51.220;5.308;2022-12-05T00:36:23;3.70;99.90
41481;DHT22;27217;51.220;5.308;2022-12-05T00:38:49;4.00;99.90
41481;DHT22;27217;51.220;5.308;2022-12-05T00:41:18;3.70;99.90
41481;DHT22;27217;51.220;5.308;2022-12-05T00:43:44;3.80;99.90
41481;DHT22;27217;51.220;5.308;2022-12-05T00:46:14;4.00;99.90
41481;DHT22;27217;51.220;5.308;2022-12-05T00:48:41;3.90;99.90
41481;DHT22;27217;51.220;5.308;2022-12-05T00:51:19;3.70;99.90
41481;DHT22;27217;51.220;5.308;2022-12-05T00:53:46;3.80;99.90
41481;DHT22;27217;51.220;5.308;2022-12-05T00:56:19;3.80;99.90
41481;DHT22;27217;51.220;5.308;2022-12-05T00:58:45;3.80;99.90
41481;DHT22;27217;51.220;5.308;2022-12-05T01:01:12;3.70;99.90
41481;DHT22;27217;51.220;5.308;2022-12-05T01:03:39;4.00;99.90
41481;DHT22;27217;51.220;5.308;2022-12-05T01:06:06;4.30;99.90
41481;DHT22;27217;51.220;5.308;2022-12-05T01:08:33;4.20;99.90
41481;DHT22;27217;51.220;5.308;2022-12-05T01:10:59;4.10;99.90
41481;DHT22;27217;51.220;5.308;2022-12-05T01:13:26;4.00;99.90
41481;DHT22;27217;51.220;5.308;2022-12-05T01:15:53;3.80;99.90
41481;DHT22;27217;51.220;5.308;2022-12-05T01:18:21;3.90;99.90
41481;DHT22;27217;51.220;5.308;2022-12-05T01:20:47;4.10;99.90
41481;DHT22;27217;51.220;5.308;2022-12-05T01:23:14;4.00;99.90
41481;DHT22;27217;51.220;5.308;2022-12-05T01:25:44;4.20;99.90
41481;DHT22;27217;51.220;5.308;2022-12-05T01:28:11;4.10;99.90
41481;DHT22;27217;51.220;5.308;2022-12-05T01:30:44;4.00;99.90
41481;DHT22;27217;51.220;5.308;2022-12-05T01:33:10;4.10;99.90
41481;DHT22;27217;51.220;5.308;2022-12-05T01:35:38;4.20;99.90
41481;DHT22;27217;51.220;5.308;2022-12-05T01:38:04;4.10;99.90
41481;DHT22;27217;51.220;5.308;2022-12-05T01:40:32;4.00;99.90
41481;DHT22;27217;51.220;5.308;2022-12-05T01:42:58;4.00;99.90
41481;DHT22;27217;51.220;5.308;2022-12-05T01:45:37;4.00;99.90
41481;DHT22;27217;51.220;5.308;2022-12-05T01:48:17;4.10;99.90
41481;DHT22;27217;51.220;5.308;2022-12-05T01:50:45;4.10;99.90
41481;DHT22;27217;51.220;5.308;2022-12-05T01:53:11;4.00;99.90
41481;DHT22;27217;51.220;5.308;2022-12-05T01:55:37;4.20;99.90
41481;DHT22;27217;51.220;5.308;2022-12-05T01:58:04;4.20;99.90
41481;DHT22;27217;51.220;5.308;2022-12-05T02:00:31;4.10;99.90
41481;DHT22;27217;51.220;5.308;2022-12-05T02:03:00;4.00;99.90
41481;DHT22;27217;51.220;5.308;2022-12-05T02:05:28;4.10;99.90
41481;DHT22;27217;51.220;5.308;2022-12-05T02:07:54;4.30;99.90
41481;DHT22;27217;51.220;5.308;2022-12-05T02:10:21;3.90;99.90
41481;DHT22;27217;51.220;5.308;2022-12-05T02:12:49;4.40;99.90
41481;DHT22;27217;51.220;5.308;2022-12-05T02:15:42;4.30;99.90
41481;DHT22;27217;51.220;5.308;2022-12-05T02:18:23;4.00;99.90
41481;DHT22;27217;51.220;5.308;2022-12-05T02:21:14;3.90;99.90
41481;DHT22;27217;51.220;5.308;2022-12-05T02:24:15;3.90;99.90
41481;DHT22;27217;51.220;5.308;2022-12-05T02:27:06;3.90;99.90
41481;DHT22;27217;51.220;5.308;2022-12-05T02:30:03;3.70;99.90
41481;DHT22;27217;51.220;5.308;2022-12-05T02:32:57;3.80;99.90
41481;DHT22;27217;51.220;5.308;2022-12-05T02:41:26;3.80;99.90
41481;DHT22;27217;51.220;5.308;2022-12-05T02:44:23;3.90;99.90
41481;DHT22;27217;51.220;5.308;2022-12-05T02:46:53;3.90;99.90
41481;DHT22;27217;51.220;5.308;2022-12-05T02:49:23;3.70;99.90
41481;DHT22;27217;51.220;5.308;2022-12-05T02:51:54;3.70;99.90
41481;DHT22;27217;51.220;5.308;2022-12-05T02:54:25;4.00;99.90
41481;DHT22;27217;51.220;5.308;2022-12-05T02:56:54;4.00;99.90
41481;DHT22;27217;51.220;5.308;2022-12-05T02:59:20;3.90;99.90
41481;DHT22;27217;51.220;5.308;2022-12-05T03:01:47;4.00;99.90
41481;DHT22;27217;51.220;5.308;2022-12-05T03:04:15;3.90;99.90
41481;DHT22;27217;51.220;5.308;2022-12-05T03:09:18;3.80;99.90
41481;DHT22;27217;51.220;5.308;2022-12-05T03:11:46;4.00;99.90
41481;DHT22;27217;51.220;5.308;2022-12-05T03:14:18;3.90;99.90
41481;DHT22;27217;51.220;5.308;2022-12-05T03:16:51;3.80;99.90
41481;DHT22;27217;51.220;5.308;2022-12-05T03:22:01;3.80;99.90
41481;DHT22;27217;51.220;5.308;2022-12-05T03:24:29;3.90;99.90
41481;DHT22;27217;51.220;5.308;2022-12-05T03:27:56;3.70;99.90
41481;DHT22;27217;51.220;5.308;2022-12-05T03:30:25;3.70;99.90
41481;DHT22;27217;51.220;5.308;2022-12-05T03:33:14;3.70;99.90
41481;DHT22;27217;51.220;5.308;2022-12-05T03:36:13;3.60;99.90
41481;DHT22;27217;51.220;5.308;2022-12-05T03:39:09;3.60;99.90
41481;DHT22;27217;51.220;5.308;2022-12-05T03:41:42;3.60;99.90
41481;DHT22;27217;51.220;5.308;2022-12-05T03:44:16;3.70;99.90
41481;DHT22;27217;51.220;5.308;2022-12-05T03:46:52;3.40;99.90
41481;DHT22;27217;51.220;5.308;2022-12-05T03:49:21;3.80;99.90
41481;DHT22;27217;51.220;5.308;2022-12-05T03:51:54;3.70;99.90
41481;DHT22;27217;51.220;5.308;2022-12-05T03:56:58;3.90;99.90
41481;DHT22;27217;51.220;5.308;2022-12-05T03:59:37;3.80;99.90
41481;DHT22;27217;51.220;5.308;2022-12-05T04:02:12;3.80;99.90
41481;DHT22;27217;51.220;5.308;2022-12-05T04:04:47;4.10;99.90
41481;DHT22;27217;51.220;5.308;2022-12-05T04:07:14;3.80;99.90
41481;DHT22;27217;51.220;5.308;2022-12-05T04:09:55;3.80;99.90
41481;DHT22;27217;51.220;5.308;2022-12-05T04:12:25;3.80;99.90
41481;DHT22;27217;51.220;5.308;2022-12-05T04:14:56;3.70;99.90
41481;DHT22;27217;51.220;5.308;2022-12-05T04:20:21;3.90;99.90
41481;DHT22;27217;51.220;5.308;2022-12-05T04:23:08;3.80;99.90
41481;DHT22;27217;51.220;5.308;2022-12-05T04:28:38;4.00;99.90
41481;DHT22;27217;51.220;5.308;2022-12-05T04:31:20;3.90;99.90
41481;DHT22;27217;51.220;5.308;2022-12-05T04:34:01;4.10;99.90
41481;DHT22;27217;51.220;5.308;2022-12-05T04:36:36;3.90;99.90
41481;DHT22;27217;51.220;5.308;2022-12-05T04:39:16;4.20;99.90
41481;DHT22;27217;51.220;5.308;2022-12-05T04:41:52;4.00;99.90
41481;DHT22;27217;51.220;5.308;2022-12-05T04:44:26;4.30;99.90
41481;DHT22;27217;51.220;5.308;2022-12-05T04:46:54;3.80;99.90
41481;DHT22;27217;51.220;5.308;2022-12-05T04:49:24;3.70;99.90
41481;DHT22;27217;51.220;5.308;2022-12-05T04:51:54;3.90;99.90
41481;DHT22;27217;51.220;5.308;2022-12-05T04:54:32;4.00;99.90
41481;DHT22;27217;51.220;5.308;2022-12-05T04:57:09;4.30;99.90
41481;DHT22;27217;51.220;5.308;2022-12-05T04:59:37;3.90;99.90
41481;DHT22;27217;51.220;5.308;2022-12-05T05:02:07;4.00;99.90
41481;DHT22;27217;51.220;5.308;2022-12-05T05:04:48;4.00;99.90
41481;DHT22;27217;51.220;5.308;2022-12-05T05:07:16;4.00;99.90
41481;DHT22;27217;51.220;5.308;2022-12-05T05:09:43;4.20;99.90
41481;DHT22;27217;51.220;5.308;2022-12-05T05:12:09;4.00;99.90
41481;DHT22;27217;51.220;5.308;2022-12-05T05:14:35;4.40;99.90
41481;DHT22;27217;51.220;5.308;2022-12-05T05:17:02;4.50;99.90
41481;DHT22;27217;51.220;5.308;2022-12-05T05:19:28;4.30;99.90
41481;DHT22;27217;51.220;5.308;2022-12-05T05:21:53;4.30;99.90
41481;DHT22;27217;51.220;5.308;2022-12-05T05:24:19;4.20;99.90
41481;DHT22;27217;51.220;5.308;2022-12-05T05:26:50;4.40;99.90
41481;DHT22;27217;51.220;5.308;2022-12-05T05:29:17;4.30;99.90
41481;DHT22;27217;51.220;5.308;2022-12-05T05:31:43;4.30;99.90
41481;DHT22;27217;51.220;5.308;2022-12-05T05:34:10;4.00;99.90
41481;DHT22;27217;51.220;5.308;2022-12-05T05:36:37;4.00;99.90
41481;DHT22;27217;51.220;5.308;2022-12-05T05:39:04;4.10;99.90
41481;DHT22;27217;51.220;5.308;2022-12-05T05:41:35;4.10;99.90
41481;DHT22;27217;51.220;5.308;2022-12-05T05:44:02;4.00;99.90
41481;DHT22;27217;51.220;5.308;2022-12-05T05:46:32;4.00;99.90
41481;DHT22;27217;51.220;5.308;2022-12-05T05:48:58;4.10;99.90
41481;DHT22;27217;51.220;5.308;2022-12-05T05:51:24;4.10;99.90
41481;DHT22;27217;51.220;5.308;2022-12-05T05:53:52;4.10;99.90
41481;DHT22;27217;51.220;5.308;2022-12-05T05:56:19;4.30;99.90
41481;DHT22;27217;51.220;5.308;2022-12-05T05:58:46;4.20;99.90
41481;DHT22;27217;51.220;5.308;2022-12-05T06:01:15;4.30;99.90
41481;DHT22;27217;51.220;5.308;2022-12-05T06:03:42;4.10;99.90
41481;DHT22;27217;51.220;5.308;2022-12-05T06:06:11;4.40;99.90
41481;DHT22;27217;51.220;5.308;2022-12-05T06:08:39;4.20;99.90
41481;DHT22;27217;51.220;5.308;2022-12-05T06:11:19;4.30;99.90
41481;DHT22;27217;51.220;5.308;2022-12-05T06:13:45;4.30;99.90
41481;DHT22;27217;51.220;5.308;2022-12-05T06:16:17;4.50;99.90
41481;DHT22;27217;51.220;5.308;2022-12-05T06:18:43;4.20;99.90
41481;DHT22;27217;51.220;5.308;2022-12-05T06:21:13;4.40;99.90
41481;DHT22;27217;51.220;5.308;2022-12-05T06:23:39;4.20;99.90
41481;DHT22;27217;51.220;5.308;2022-12-05T06:26:08;4.40;99.90
41481;DHT22;27217;51.220;5.308;2022-12-05T06:28:35;4.10;99.90
41481;DHT22;27217;51.220;5.308;2022-12-05T06:31:08;4.20;99.90
41481;DHT22;27217;51.220;5.308;2022-12-05T06:33:36;4.00;99.90
41481;DHT22;27217;51.220;5.308;2022-12-05T06:36:07;4.00;99.90
41481;DHT22;27217;51.220;5.308;2022-12-05T06:38:33;4.20;99.90
41481;DHT22;27217;51.220;5.308;2022-12-05T06:40:59;4.30;99.90
41481;DHT22;27217;51.220;5.308;2022-12-05T06:43:25;4.50;99.90
41481;DHT22;27217;51.220;5.308;2022-12-05T06:45:51;4.20;99.90
41481;DHT22;27217;51.220;5.308;2022-12-05T06:48:17;4.10;99.90
41481;DHT22;27217;51.220;5.308;2022-12-05T06:50:50;4.30;99.90
41481;DHT22;27217;51.220;5.308;2022-12-05T06:53:17;4.20;99.90
41481;DHT22;27217;51.220;5.308;2022-12-05T06:55:43;4.40;99.90
41481;DHT22;27217;51.220;5.308;2022-12-05T06:58:09;4.10;99.90
41481;DHT22;27217;51.220;5.308;2022-12-05T07:00:34;4.10;99.90
41481;DHT22;27217;51.220;5.308;2022-12-05T07:03:19;4.10;99.90
41481;DHT22;27217;51.220;5.308;2022-12-05T07:05:44;4.40;99.90
41481;DHT22;27217;51.220;5.308;2022-12-05T07:08:10;4.30;99.90
41481;DHT22;27217;51.220;5.308;2022-12-05T07:10:36;4.10;99.90
41481;DHT22;27217;51.220;5.308;2022-12-05T07:13:01;4.20;99.90
41481;DHT22;27217;51.220;5.308;2022-12-05T07:15:27;4.20;99.90
41481;DHT22;27217;51.220;5.308;2022-12-05T07:17:53;4.30;99.90
41481;DHT22;27217;51.220;5.308;2022-12-05T07:20:19;4.30;99.90
41481;DHT22;27217;51.220;5.308;2022-12-05T07:22:45;4.30;99.90
41481;DHT22;27217;51.220;5.308;2022-12-05T07:25:11;4.30;99.90
41481;DHT22;27217;51.220;5.308;2022-12-05T07:27:37;4.40;99.90
41481;DHT22;27217;51.220;5.308;2022-12-05T07:30:04;4.30;99.90
41481;DHT22;27217;51.220;5.308;2022-12-05T07:32:31;4.10;99.90
41481;DHT22;27217;51.220;5.308;2022-12-05T07:34:58;4.30;99.90
41481;DHT22;27217;51.220;5.308;2022-12-05T07:37:23;4.40;99.90
41481;DHT22;27217;51.220;5.308;2022-12-05T07:39:51;4.40;99.90
41481;DHT22;27217;51.220;5.308;2022-12-05T07:42:17;4.50;99.90
41481;DHT22;27217;51.220;5.308;2022-12-05T07:44:43;4.30;99.90
41481;DHT22;27217;51.220;5.308;2022-12-05T07:47:09;4.50;99.90
41481;DHT22;27217;51.220;5.308;2022-12-05T07:49:34;4.30;99.90
41481;DHT22;27217;51.220;5.308;2022-12-05T07:52:01;4.50;99.90
41481;DHT22;27217;51.220;5.308;2022-12-05T07:54:27;4.30;99.90
41481;DHT22;27217;51.220;5.308;2022-12-05T07:56:52;4.40;99.90
41481;DHT22;27217;51.220;5.308;2022-12-05T07:59:19;4.40;99.90
41481;DHT22;27217;51.220;5.308;2022-12-05T08:01:45;4.30;99.90
41481;DHT22;27217;51.220;5.308;2022-12-05T08:04:11;4.40;99.90
41481;DHT22;27217;51.220;5.308;2022-12-05T08:06:36;4.40;99.90
41481;DHT22;27217;51.220;5.308;2022-12-05T08:09:02;4.40;99.90
41481;DHT22;27217;51.220;5.308;2022-12-05T08:11:30;4.50;99.90
41481;DHT22;27217;51.220;5.308;2022-12-05T08:13:59;4.50;99.90
41481;DHT22;27217;51.220;5.308;2022-12-05T08:16:28;4.60;99.90
41481;DHT22;27217;51.220;5.308;2022-12-05T08:19:05;4.60;99.90
41481;DHT22;27217;51.220;5.308;2022-12-05T08:21:31;4.60;99.90
41481;DHT22;27217;51.220;5.308;2022-12-05T08:23:57;4.40;99.90
41481;DHT22;27217;51.220;5.308;2022-12-05T08:26:26;4.50;99.90
41481;DHT22;27217;51.220;5.308;2022-12-05T08:28:54;4.40;99.90
41481;DHT22;27217;51.220;5.308;2022-12-05T08:31:25;4.60;99.90
41481;DHT22;27217;51.220;5.308;2022-12-05T08:33:52;4.60;99.90
41481;DHT22;27217;51.220;5.308;2022-12-05T08:36:18;4.80;99.90
41481;DHT22;27217;51.220;5.308;2022-12-05T08:38:45;4.80;99.90
41481;DHT22;27217;51.220;5.308;2022-12-05T08:41:13;4.90;99.90
41481;DHT22;27217;51.220;5.308;2022-12-05T08:43:39;4.70;99.90
41481;DHT22;27217;51.220;5.308;2022-12-05T08:46:05;4.70;99.90
41481;DHT22;27217;51.220;5.308;2022-12-05T08:48:32;4.70;99.90
41481;DHT22;27217;51.220;5.308;2022-12-05T08:51:03;4.60;99.90
41481;DHT22;27217;51.220;5.308;2022-12-05T08:53:29;4.70;99.90
41481;DHT22;27217;51.220;5.308;2022-12-05T08:55:54;4.50;99.90
41481;DHT22;27217;51.220;5.308;2022-12-05T08:58:20;4.80;99.90
41481;DHT22;27217;51.220;5.308;2022-12-05T09:00:46;4.60;99.90
41481;DHT22;27217;51.220;5.308;2022-12-05T09:03:12;4.60;99.90
41481;DHT22;27217;51.220;5.308;2022-12-05T09:05:38;4.80;99.90
41481;DHT22;27217;51.220;5.308;2022-12-05T09:08:04;4.80;99.90
41481;DHT22;27217;51.220;5.308;2022-12-05T09:10:30;4.80;99.90
41481;DHT22;27217;51.220;5.308;2022-12-05T09:12:55;4.70;99.90
41481;DHT22;27217;51.220;5.308;2022-12-05T09:15:21;4.80;99.90
41481;DHT22;27217;51.220;5.308;2022-12-05T09:17:47;4.70;99.90
41481;DHT22;27217;51.220;5.308;2022-12-05T09:20:13;4.70;99.90
41481;DHT22;27217;51.220;5.308;2022-12-05T09:22:39;4.70;99.90
41481;DHT22;27217;51.220;5.308;2022-12-05T09:25:06;4.80;99.90
41481;DHT22;27217;51.220;5.308;2022-12-05T09:27:32;4.60;99.90
41481;DHT22;27217;51.220;5.308;2022-12-05T09:29:59;4.60;99.90
41481;DHT22;27217;51.220;5.308;2022-12-05T09:32:24;4.50;99.90
41481;DHT22;27217;51.220;5.308;2022-12-05T09:34:50;4.70;99.90
41481;DHT22;27217;51.220;5.308;2022-12-05T09:37:16;4.90;99.90
41481;DHT22;27217;51.220;5.308;2022-12-05T09:39:43;4.90;99.90
41481;DHT22;27217;51.220;5.308;2022-12-05T09:42:30;5.00;99.90
41481;DHT22;27217;51.220;5.308;2022-12-05T09:50:23;4.90;99.90
41481;DHT22;27217;51.220;5.308;2022-12-05T09:53:22;4.80;99.90
41481;DHT22;27217;51.220;5.308;2022-12-05T09:55:52;5.00;99.90
41481;DHT22;27217;51.220;5.308;2022-12-05T10:01:07;4.90;99.90
41481;DHT22;27217;51.220;5.308;2022-12-05T10:04:02;4.90;99.90
41481;DHT22;27217;51.220;5.308;2022-12-05T10:06:54;4.80;99.90
41481;DHT22;27217;51.220;5.308;2022-12-05T10:15:03;4.80;99.90
41481;DHT22;27217;51.220;5.308;2022-12-05T10:17:35;4.80;99.90
41481;DHT22;27217;51.220;5.308;2022-12-05T10:20:33;4.80;99.90
41481;DHT22;27217;51.220;5.308;2022-12-05T10:23:13;4.70;99.90
41481;DHT22;27217;51.220;5.308;2022-12-05T10:25:41;4.60;99.90
41481;DHT22;27217;51.220;5.308;2022-12-05T10:28:36;4.50;99.90
41481;DHT22;27217;51.220;5.308;2022-12-05T10:31:08;4.60;99.90
41481;DHT22;27217;51.220;5.308;2022-12-05T10:33:47;4.40;99.90
41481;DHT22;27217;51.220;5.308;2022-12-05T10:36:14;4.50;99.90
41481;DHT22;27217;51.220;5.308;2022-12-05T10:38:42;4.60;99.90
41481;DHT22;27217;51.220;5.308;2022-12-05T10:41:12;4.70;99.90
41481;DHT22;27217;51.220;5.308;2022-12-05T10:43:43;5.00;99.90
41481;DHT22;27217;51.220;5.308;2022-12-05T10:46:11;5.10;99.90
41481;DHT22;27217;51.220;5.308;2022-12-05T10:48:39;5.00;99.90
41481;DHT22;27217;51.220;5.308;2022-12-05T10:51:10;5.00;99.90
41481;DHT22;27217;51.220;5.308;2022-12-05T10:53:45;5.20;99.90
41481;DHT22;27217;51.220;5.308;2022-12-05T10:56:38;5.10;99.90
41481;DHT22;27217;51.220;5.308;2022-12-05T10:59:09;5.10;99.90
41481;DHT22;27217;51.220;5.308;2022-12-05T11:01:36;5.10;99.90
41481;DHT22;27217;51.220;5.308;2022-12-05T11:04:17;5.00;99.90
41481;DHT22;27217;51.220;5.308;2022-12-05T11:09:23;5.20;99.90
41481;DHT22;27217;51.220;5.308;2022-12-05T11:14:34;5.10;99.90
41481;DHT22;27217;51.220;5.308;2022-12-05T11:17:03;5.10;99.90
41481;DHT22;27217;51.220;5.308;2022-12-05T11:19:34;5.10;99.90
41481;DHT22;27217;51.220;5.308;2022-12-05T11:22:01;5.10;99.90
41481;DHT22;27217;51.220;5.308;2022-12-05T11:24:37;5.10;99.90
41481;DHT22;27217;51.220;5.308;2022-12-05T11:29:41;5.40;99.90
41481;DHT22;27217;51.220;5.308;2022-12-05T11:32:28;5.50;99.90
41481;DHT22;27217;51.220;5.308;2022-12-05T11:35:03;5.30;99.90
41481;DHT22;27217;51.220;5.308;2022-12-05T11:37:50;5.40;99.90
41481;DHT22;27217;51.220;5.308;2022-12-05T12:12:58;5.00;99.90
41481;DHT22;27217;51.220;5.308;2022-12-05T12:42:22;5.10;99.90
41481;DHT22;27217;51.220;5.308;2022-12-05T12:50:27;5.30;99.90
41481;DHT22;27217;51.220;5.308;2022-12-05T12:53:26;5.40;99.90
41481;DHT22;27217;51.220;5.308;2022-12-05T12:56:28;5.40;99.90
41481;DHT22;27217;51.220;5.308;2022-12-05T13:01:54;5.50;99.90
41481;DHT22;27217;51.220;5.308;2022-12-05T13:04:28;5.60;99.90
41481;DHT22;27217;51.220;5.308;2022-12-05T13:07:11;5.50;99.90
41481;DHT22;27217;51.220;5.308;2022-12-05T13:09:48;5.70;99.90
41481;DHT22;27217;51.220;5.308;2022-12-05T13:12:16;5.60;99.90
41481;DHT22;27217;51.220;5.308;2022-12-05T13:14:53;5.80;99.90
41481;DHT22;27217;51.220;5.308;2022-12-05T13:17:21;5.90;99.90
41481;DHT22;27217;51.220;5.308;2022-12-05T13:19:52;5.70;99.90
41481;DHT22;27217;51.220;5.308;2022-12-05T13:22:21;5.80;99.90
41481;DHT22;27217;51.220;5.308;2022-12-05T13:24:53;5.80;99.90
41481;DHT22;27217;51.220;5.308;2022-12-05T13:27:22;5.70;99.90
41481;DHT22;27217;51.220;5.308;2022-12-05T13:29:49;5.50;99.90
41481;DHT22;27217;51.220;5.308;2022-12-05T13:32:37;5.50;99.90
41481;DHT22;27217;51.220;5.308;2022-12-05T13:35:35;5.40;99.90
41481;DHT22;27217;51.220;5.308;2022-12-05T13:38:21;5.50;99.90
41481;DHT22;27217;51.220;5.308;2022-12-05T13:41:05;5.40;99.90
41481;DHT22;27217;51.220;5.308;2022-12-05T13:43:52;5.30;99.90
41481;DHT22;27217;51.220;5.308;2022-12-05T13:46:25;5.30;99.90
41481;DHT22;27217;51.220;5.308;2022-12-05T13:49:05;5.60;99.90
41481;DHT22;27217;51.220;5.308;2022-12-05T13:51:38;5.60;99.90
41481;DHT22;27217;51.220;5.308;2022-12-05T13:54:18;5.50;99.90
41481;DHT22;27217;51.220;5.308;2022-12-05T13:57:04;5.50;99.90
41481;DHT22;27217;51.220;5.308;2022-12-05T14:00:03;5.50;99.90
41481;DHT22;27217;51.220;5.308;2022-12-05T14:07:53;5.40;99.90
41481;DHT22;27217;51.220;5.308;2022-12-05T14:15:41;5.70;99.90
41481;DHT22;27217;51.220;5.308;2022-12-05T14:18:31;5.60;99.90
41481;DHT22;27217;51.220;5.308;2022-12-05T14:21:15;5.80;99.90
41481;DHT22;27217;51.220;5.308;2022-12-05T14:32:24;5.70;99.90
41481;DHT22;27217;51.220;5.308;2022-12-05T14:35:22;5.70;99.90
41481;DHT22;27217;51.220;5.308;2022-12-05T14:37:56;5.50;99.90
41481;DHT22;27217;51.220;5.308;2022-12-05T14:40:30;5.80;99.90
41481;DHT22;27217;51.220;5.308;2022-12-05T14:46:30;5.90;99.90
41481;DHT22;27217;51.220;5.308;2022-12-05T14:52:09;5.80;99.90
41481;DHT22;27217;51.220;5.308;2022-12-05T14:54:37;5.80;99.90
41481;DHT22;27217;51.220;5.308;2022-12-05T14:57:12;5.70;99.90
41481;DHT22;27217;51.220;5.308;2022-12-05T14:59:53;6.00;99.90
41481;DHT22;27217;51.220;5.308;2022-12-05T15:02:33;5.90;99.90
41481;DHT22;27217;51.220;5.308;2022-12-05T15:05:25;5.70;99.90
41481;DHT22;27217;51.220;5.308;2022-12-05T15:07:53;5.70;99.90
41481;DHT22;27217;51.220;5.308;2022-12-05T15:13:17;5.70;99.90
41481;DHT22;27217;51.220;5.308;2022-12-05T15:18:37;5.80;99.90
41481;DHT22;27217;51.220;5.308;2022-12-05T15:23:44;5.80;99.90
41481;DHT22;27217;51.220;5.308;2022-12-05T15:29:01;5.80;99.90
41481;DHT22;27217;51.220;5.308;2022-12-05T15:31:30;5.80;99.90
41481;DHT22;27217;51.220;5.308;2022-12-05T15:34:00;5.70;99.90
41481;DHT22;27217;51.220;5.308;2022-12-05T15:36:33;6.00;99.90
41481;DHT22;27217;51.220;5.308;2022-12-05T15:39:15;6.00;99.90
41481;DHT22;27217;51.220;5.308;2022-12-05T15:41:42;5.90;99.90
41481;DHT22;27217;51.220;5.308;2022-12-05T15:44:10;5.70;99.90
41481;DHT22;27217;51.220;5.308;2022-12-05T15:46:36;5.80;99.90
41481;DHT22;27217;51.220;5.308;2022-12-05T15:49:16;5.80;99.90
41481;DHT22;27217;51.220;5.308;2022-12-05T15:51:46;5.80;99.90
41481;DHT22;27217;51.220;5.308;2022-12-05T15:54:28;5.80;99.90
41481;DHT22;27217;51.220;5.308;2022-12-05T15:57:07;5.80;99.90
41481;DHT22;27217;51.220;5.308;2022-12-05T15:59:39;5.70;99.90
41481;DHT22;27217;51.220;5.308;2022-12-05T16:02:15;5.90;99.90
41481;DHT22;27217;51.220;5.308;2022-12-05T16:04:50;5.70;99.90
41481;DHT22;27217;51.220;5.308;2022-12-05T16:07:18;5.70;99.90
41481;DHT22;27217;51.220;5.308;2022-12-05T16:09:45;5.80;99.90
41481;DHT22;27217;51.220;5.308;2022-12-05T16:14:53;5.80;99.90
41481;DHT22;27217;51.220;5.308;2022-12-05T16:17:20;5.80;99.90
41481;DHT22;27217;51.220;5.308;2022-12-05T16:19:46;5.90;99.90
41481;DHT22;27217;51.220;5.308;2022-12-05T16:24:41;5.90;99.90
41481;DHT22;27217;51.220;5.308;2022-12-05T16:27:14;5.90;99.90
41481;DHT22;27217;51.220;5.308;2022-12-05T16:29:41;5.70;99.90
41481;DHT22;27217;51.220;5.308;2022-12-05T16:32:22;5.50;99.90
41481;DHT22;27217;51.220;5.308;2022-12-05T16:34:48;5.30;99.90
41481;DHT22;27217;51.220;5.308;2022-12-05T16:37:23;5.30;99.90
41481;DHT22;27217;51.220;5.308;2022-12-05T16:39:49;5.50;99.90
41481;DHT22;27217;51.220;5.308;2022-12-05T16:42:27;5.50;99.90
41481;DHT22;27217;51.220;5.308;2022-12-05T16:44:59;5.50;99.90
41481;DHT22;27217;51.220;5.308;2022-12-05T16:47:55;5.50;99.90
41481;DHT22;27217;51.220;5.308;2022-12-05T16:50:23;5.50;99.90
41481;DHT22;27217;51.220;5.308;2022-12-05T16:52:55;5.20;99.90
41481;DHT22;27217;51.220;5.308;2022-12-05T16:55:24;5.40;99.90
41481;DHT22;27217;51.220;5.308;2022-12-05T16:57:50;5.20;99.90
41481;DHT22;27217;51.220;5.308;2022-12-05T17:00:16;5.20;99.90
41481;DHT22;27217;51.220;5.308;2022-12-05T17:02:45;4.80;99.90
41481;DHT22;27217;51.220;5.308;2022-12-05T17:05:14;4.90;99.90
41481;DHT22;27217;51.220;5.308;2022-12-05T17:07:41;5.00;99.90
41481;DHT22;27217;51.220;5.308;2022-12-05T17:10:07;5.00;99.90
41481;DHT22;27217;51.220;5.308;2022-12-05T17:12:33;4.70;99.90
41481;DHT22;27217;51.220;5.308;2022-12-05T17:14:59;5.00;99.90
41481;DHT22;27217;51.220;5.308;2022-12-05T17:17:25;4.90;99.90
41481;DHT22;27217;51.220;5.308;2022-12-05T17:19:51;5.20;99.90
41481;DHT22;27217;51.220;5.308;2022-12-05T17:22:16;5.00;99.90
41481;DHT22;27217;51.220;5.308;2022-12-05T17:24:42;4.90;99.90
41481;DHT22;27217;51.220;5.308;2022-12-05T17:27:10;4.90;99.90
41481;DHT22;27217;51.220;5.308;2022-12-05T17:29:36;4.80;99.90
41481;DHT22;27217;51.220;5.308;2022-12-05T17:32:02;5.20;99.90
41481;DHT22;27217;51.220;5.308;2022-12-05T17:34:29;5.30;99.90
41481;DHT22;27217;51.220;5.308;2022-12-05T17:36:54;5.60;99.90
41481;DHT22;27217;51.220;5.308;2022-12-05T17:39:21;5.40;99.90
41481;DHT22;27217;51.220;5.308;2022-12-05T17:41:47;5.40;99.90
41481;DHT22;27217;51.220;5.308;2022-12-05T17:44:13;5.70;99.90
41481;DHT22;27217;51.220;5.308;2022-12-05T17:46:42;5.60;99.90
41481;DHT22;27217;51.220;5.308;2022-12-05T17:49:12;4.70;99.90
41481;DHT22;27217;51.220;5.308;2022-12-05T17:51:39;4.50;99.90
41481;DHT22;27217;51.220;5.308;2022-12-05T17:54:06;4.20;99.90
41481;DHT22;27217;51.220;5.308;2022-12-05T17:56:33;4.20;99.90
41481;DHT22;27217;51.220;5.308;2022-12-05T17:58:58;4.60;99.90
41481;DHT22;27217;51.220;5.308;2022-12-05T18:01:24;4.70;99.90
41481;DHT22;27217;51.220;5.308;2022-12-05T18:03:50;4.70;99.90
41481;DHT22;27217;51.220;5.308;2022-12-05T18:06:17;4.90;99.90
41481;DHT22;27217;51.220;5.308;2022-12-05T18:08:43;5.40;99.90
41481;DHT22;27217;51.220;5.308;2022-12-05T18:11:11;5.20;99.90
41481;DHT22;27217;51.220;5.308;2022-12-05T18:13:37;5.20;99.90
41481;DHT22;27217;51.220;5.308;2022-12-05T18:16:04;5.20;99.90
41481;DHT22;27217;51.220;5.308;2022-12-05T18:18:29;5.20;99.90
41481;DHT22;27217;51.220;5.308;2022-12-05T18:21:08;5.00;99.90
41481;DHT22;27217;51.220;5.308;2022-12-05T18:23:35;5.30;99.90
41481;DHT22;27217;51.220;5.308;2022-12-05T18:26:03;5.60;99.90
41481;DHT22;27217;51.220;5.308;2022-12-05T18:28:29;5.50;99.90
41481;DHT22;27217;51.220;5.308;2022-12-05T18:31:07;5.70;99.90
41481;DHT22;27217;51.220;5.308;2022-12-05T18:33:33;5.50;99.90
41481;DHT22;27217;51.220;5.308;2022-12-05T18:36:04;5.50;99.90
41481;DHT22;27217;51.220;5.308;2022-12-05T18:38:30;5.30;99.90
41481;DHT22;27217;51.220;5.308;2022-12-05T18:41:00;5.40;99.90
41481;DHT22;27217;51.220;5.308;2022-12-05T18:43:26;5.60;99.90